Startpagina
METAR-TAF:

METAR-TAF

Vliegvelden :

Luchthaven Doesjanbe

Doesjanbe, Tadzjikistan

breedte: 38-33N, lengte: 068-47E, hoogte: 803 m

Actueel weer

Dit bericht is 19 minuten geleden gemaakt, om 17:30 UTC
Wind 4 kt uit het oostnoordoosten
Temperatuur 29°C
Vochtigheid 35%
Druk 1003 hPa
Zicht 10 km of meer

METAR: UTDD 181730Z 06002MPS 9999 NSC 29/12 Q1003 R09/D NOSIG RMK QFE685/0913

Tijdstip: 22:49 (17:49 UTC)

Verwachting

Dit bericht is 2 uur en het 49 minuten geleden gemaakt, om 15:00 UTC
Verwachting geldig van 18 om 16 UTC tot 19 om 04 UTC
Wind 4 kt uit variabele richting
Zicht: 6000 m
Weinig wolken op 6600 ft
Verspreide wolken op 13000 ft

TAF: UTDD 181500Z 1816/1904 VRB02MPS 6000 FEW066 SCT130

Waarnemingen en weersverwachtingen van meer dan 4000 vliegvelden (METAR en TAF).

De beschikbare stations zijn de gele en rode punten op de kaart.

Ga met uw muis naar het station om de naam te zien.

Klik dan om waarnemingen en weersverwachtingen te zien.

kaart wijzigen: klik op de groene knoppen met een zwart kruis om in te zoomen, op de groene knop met een streepje om uit te zoomen of op de groene pijlen voor aangrenzende kaarten.


METAR-TAF: